Time;durP1;ratioP1;P1;durP2;ratioP2;P2;SDS_P1;SDS_P2;PMS_P1;PMS_P2;Temp;Humidity;BMP_temperature;BMP_pressure;BME280_temperature;BME280_humidity;BME280_pressure;Samples;Min_cycle;Max_cycle;Signal;HPM_P1;HPM_P2
2021/08/22 00:01:58;;;;;;;14.02;5.03;;;;;;;;;;5023467;28;20601;-65
2021/08/22 00:04:25;;;;;;;11.75;4.55;;;;;;;;;;5025298;28;20449;-66
2021/08/22 00:06:51;;;;;;;9.90;4.22;;;;;;;;;;5025071;28;20073;-65
2021/08/22 00:09:18;;;;;;;9.32;4.28;;;;;;;;;;5022725;28;20127;-65
2021/08/22 00:11:44;;;;;;;11.65;4.57;;;;;;;;;;5026065;28;20510;-65
2021/08/22 00:14:11;;;;;;;7.13;4.55;;;;;;;;;;5022245;28;20552;-65
2021/08/22 00:16:37;;;;;;;12.73;4.60;;;;;;;;;;5021117;28;20562;-65
2021/08/22 00:19:04;;;;;;;16.35;4.32;;;;;;;;;;5024853;28;20100;-65
2021/08/22 00:21:30;;;;;;;16.45;4.80;;;;;;;;;;5025792;28;20069;-65
2021/08/22 00:23:57;;;;;;;7.72;4.40;;;;;;;;;;5023307;28;20073;-65
2021/08/22 00:26:23;;;;;;;10.45;4.68;;;;;;;;;;5030247;28;20164;-65
2021/08/22 00:28:50;;;;;;;11.48;5.70;;;;;;;;;;5023192;28;20510;-65
2021/08/22 00:31:17;;;;;;;13.35;4.47;;;;;;;;;;5022658;28;20164;-65
2021/08/22 00:33:43;;;;;;;8.07;3.97;;;;;;;;;;5023606;28;20041;-65
2021/08/22 00:36:10;;;;;;;7.25;4.75;;;;;;;;;;5025813;28;20152;-65
2021/08/22 00:38:37;;;;;;;7.80;4.23;;;;;;;;;;5020391;28;20132;-66
2021/08/22 00:41:03;;;;;;;11.95;5.05;;;;;;;;;;5019804;28;20297;-66
2021/08/22 00:43:29;;;;;;;19.52;13.00;;;;;;;;;;5023997;28;20080;-65
2021/08/22 00:45:58;;;;;;;7.72;5.00;;;;;;;;;;5018927;28;20483;-65
2021/08/22 00:48:24;;;;;;;;;;;;;;;;;;5022095;28;20049;-65
2021/08/22 00:50:52;;;;;;;21.23;9.40;;;;;;;;;;5020728;28;20037;-65
2021/08/22 00:53:19;;;;;;;24.02;11.50;;;;;;;;;;5021123;28;20077;-65
2021/08/22 00:55:45;;;;;;;26.27;11.95;;;;;;;;;;5023756;28;20092;-65
2021/08/22 00:58:11;;;;;;;28.73;13.80;;;;;;;;;;5022236;28;20099;-65
2021/08/22 01:00:40;;;;;;;31.17;16.90;;;;;;;;;;5021722;28;20584;-65
2021/08/22 01:03:16;;;;;;;23.92;10.45;;;;;;;;;;5015773;28;20100;-65
2021/08/22 01:05:44;;;;;;;18.27;8.57;;;;;;;;;;5019729;28;20519;-65
2021/08/22 01:08:15;;;;;;;14.77;7.20;;;;;;;;;;5026043;28;20074;-65
2021/08/22 01:10:42;;;;;;;13.50;6.70;;;;;;;;;;5021647;28;20129;-65
2021/08/22 01:13:09;;;;;;;8.63;6.18;;;;;;;;;;5024136;28;20093;-65
2021/08/22 01:15:37;;;;;;;10.93;5.82;;;;;;;;;;5020619;28;20128;-65
2021/08/22 01:18:05;;;;;;;15.18;7.97;;;;;;;;;;5025425;28;20053;-65
2021/08/22 01:20:31;;;;;;;7.18;4.80;;;;;;;;;;5023382;28;20128;-66
2021/08/22 01:22:58;;;;;;;10.32;5.38;;;;;;;;;;5022519;28;20125;-65
2021/08/22 01:25:25;;;;;;;10.30;6.32;;;;;;;;;;5027387;28;20077;-65
2021/08/22 01:27:52;;;;;;;9.80;5.97;;;;;;;;;;5020736;28;20123;-65
2021/08/22 01:30:19;;;;;;;11.90;5.57;;;;;;;;;;5020596;28;20084;-65
2021/08/22 01:32:47;;;;;;;13.20;6.67;;;;;;;;;;5020438;28;20144;-66
2021/08/22 01:35:19;;;;;;;9.07;5.93;;;;;;;;;;5026166;28;20288;-66
2021/08/22 01:37:46;;;;;;;11.13;6.25;;;;;;;;;;5021673;28;20140;-65
2021/08/22 01:40:13;;;;;;;;;;;;;;;;;;5024559;28;20145;-65
2021/08/22 01:42:41;;;;;;;12.93;6.43;;;;;;;;;;5023578;28;19921;-65
2021/08/22 01:45:07;;;;;;;;;;;;;;;;;;5026139;28;20097;-65
2021/08/22 01:47:34;;;;;;;11.40;6.22;;;;;;;;;;5022388;28;19975;-65
2021/08/22 01:50:01;;;;;;;23.95;7.35;;;;;;;;;;5018332;28;20586;-65
2021/08/22 01:52:28;;;;;;;15.10;7.18;;;;;;;;;;5024138;28;20041;-65
2021/08/22 01:54:55;;;;;;;19.27;7.97;;;;;;;;;;5021003;28;20156;-65
2021/08/22 01:57:21;;;;;;;15.80;7.78;;;;;;;;;;5025430;28;20199;-65
2021/08/22 01:59:48;;;;;;;10.43;6.97;;;;;;;;;;5024242;28;20474;-65
2021/08/22 02:02:14;;;;;;;14.82;6.43;;;;;;;;;;5023451;28;20488;-65
2021/08/22 02:04:46;;;;;;;12.52;7.50;;;;;;;;;;5017644;28;20065;-65
2021/08/22 02:07:17;;;;;;;8.98;5.63;;;;;;;;;;5018144;28;20588;-65
2021/08/22 02:09:47;;;;;;;11.68;4.57;;;;;;;;;;5025322;28;20140;-65
2021/08/22 02:12:17;;;;;;;12.63;5.20;;;;;;;;;;5023793;28;20119;-65
2021/08/22 02:14:48;;;;;;;10.32;5.95;;;;;;;;;;5023932;28;20069;-65
2021/08/22 02:17:15;;;;;;;9.43;4.63;;;;;;;;;;5021102;28;20141;-65
2021/08/22 02:19:42;;;;;;;11.65;5.93;;;;;;;;;;5016704;28;20552;-65
2021/08/22 02:22:09;;;;;;;11.30;6.70;;;;;;;;;;5016063;28;20133;-65
2021/08/22 02:24:36;;;;;;;13.35;6.03;;;;;;;;;;5024134;28;20135;-65
2021/08/22 02:27:02;;;;;;;10.85;6.60;;;;;;;;;;5022881;28;20124;-65
2021/08/22 02:29:29;;;;;;;15.57;7.10;;;;;;;;;;5022717;28;20141;-65
2021/08/22 02:31:56;;;;;;;13.93;6.83;;;;;;;;;;5021754;28;20115;-65
2021/08/22 02:34:22;;;;;;;18.02;7.82;;;;;;;;;;5026650;28;20128;-65
2021/08/22 02:36:49;;;;;;;14.57;7.88;;;;;;;;;;5023016;28;20120;-65
2021/08/22 02:39:15;;;;;;;14.07;7.07;;;;;;;;;;5023379;28;20128;-65
2021/08/22 02:41:41;;;;;;;18.73;9.02;;;;;;;;;;5026795;28;20148;-65
2021/08/22 02:44:08;;;;;;;14.93;7.63;;;;;;;;;;5025047;28;20144;-65
2021/08/22 02:46:35;;;;;;;16.17;7.97;;;;;;;;;;5019870;28;20145;-65
2021/08/22 02:49:01;;;;;;;9.80;6.97;;;;;;;;;;5023567;28;20042;-65
2021/08/22 02:51:29;;;;;;;25.90;8.18;;;;;;;;;;5017073;28;20324;-65
2021/08/22 02:53:55;;;;;;;11.18;7.00;;;;;;;;;;5017824;28;20136;-65
2021/08/22 02:56:21;;;;;;;77.07;9.85;;;;;;;;;;5013296;28;20077;-65
2021/08/22 02:58:48;;;;;;;26.58;8.75;;;;;;;;;;5020332;28;20128;-65
2021/08/22 03:01:14;;;;;;;19.48;8.10;;;;;;;;;;5021106;28;20076;-65
2021/08/22 03:03:41;;;;;;;22.73;8.57;;;;;;;;;;5021096;28;20049;-65
2021/08/22 03:06:08;;;;;;;13.32;6.53;;;;;;;;;;5021211;28;20045;-65
2021/08/22 03:08:34;;;;;;;12.52;6.00;;;;;;;;;;5021978;28;20107;-65
2021/08/22 03:11:01;;;;;;;17.50;6.63;;;;;;;;;;5020612;28;20128;-65
2021/08/22 03:13:27;;;;;;;46.30;8.38;;;;;;;;;;5019685;28;20088;-65
2021/08/22 03:15:54;;;;;;;28.27;7.40;;;;;;;;;;5019843;28;20461;-65
2021/08/22 03:18:20;;;;;;;14.68;6.25;;;;;;;;;;5023751;28;20053;-65
2021/08/22 03:20:48;;;;;;;18.05;7.05;;;;;;;;;;5026480;28;20085;-65
2021/08/22 03:23:14;;;;;;;52.72;8.68;;;;;;;;;;5017934;28;20137;-65
2021/08/22 03:25:40;;;;;;;64.57;8.90;;;;;;;;;;5026709;28;20120;-65
2021/08/22 03:28:07;;;;;;;23.85;7.40;;;;;;;;;;5019926;28;20141;-65
2021/08/22 03:30:34;;;;;;;24.00;7.63;;;;;;;;;;5023374;28;20081;-65
2021/08/22 03:33:00;;;;;;;31.10;8.35;;;;;;;;;;5022944;28;20045;-65
2021/08/22 03:35:29;;;;;;;81.97;10.57;;;;;;;;;;5027059;28;20053;-65
2021/08/22 03:37:55;;;;;;;84.18;10.88;;;;;;;;;;5025362;28;20049;-65
2021/08/22 03:40:22;;;;;;;77.55;9.88;;;;;;;;;;5027460;28;20073;-65
2021/08/22 03:42:48;;;;;;;64.80;10.93;;;;;;;;;;5025174;28;20081;-65
2021/08/22 03:45:16;;;;;;;70.88;9.55;;;;;;;;;;5022875;28;20058;-65
2021/08/22 03:47:42;;;;;;;99.60;11.35;;;;;;;;;;5025330;28;20092;-65
2021/08/22 03:50:09;;;;;;;80.47;10.98;;;;;;;;;;5024743;28;20132;-65
2021/08/22 03:52:36;;;;;;;108.70;12.90;;;;;;;;;;5027035;28;20084;-65
2021/08/22 03:55:03;;;;;;;52.75;9.52;;;;;;;;;;5024072;28;20506;-65
2021/08/22 03:57:30;;;;;;;47.45;9.10;;;;;;;;;;5029245;28;20477;-65
2021/08/22 03:59:57;;;;;;;42.40;8.57;;;;;;;;;;5027901;28;20077;-65
2021/08/22 04:02:23;;;;;;;60.30;10.20;;;;;;;;;;5025174;28;20063;-65
2021/08/22 04:04:51;;;;;;;93.82;10.40;;;;;;;;;;5024227;28;20046;-65
2021/08/22 04:07:18;;;;;;;79.18;10.80;;;;;;;;;;5029389;28;20136;-65
2021/08/22 04:09:44;;;;;;;52.63;10.43;;;;;;;;;;5023222;28;20105;-65
2021/08/22 04:12:11;;;;;;;22.30;8.18;;;;;;;;;;5023235;28;20081;-65
2021/08/22 04:14:38;;;;;;;65.80;10.97;;;;;;;;;;5026847;28;20107;-65
2021/08/22 04:17:05;;;;;;;36.17;9.30;;;;;;;;;;5026948;28;20065;-65
2021/08/22 04:19:32;;;;;;;71.72;11.88;;;;;;;;;;5025448;28;20099;-65
2021/08/22 04:21:58;;;;;;;28.77;10.13;;;;;;;;;;5019918;28;20077;-65
2021/08/22 04:24:25;;;;;;;32.92;9.60;;;;;;;;;;5024188;28;20483;-65
2021/08/22 04:26:53;;;;;;;24.98;8.68;;;;;;;;;;5022806;28;20145;-65
2021/08/22 04:29:19;;;;;;;12.68;7.13;;;;;;;;;;5021853;28;20141;-65
2021/08/22 04:31:46;;;;;;;32.50;8.32;;;;;;;;;;5027409;28;20493;-65
2021/08/22 04:34:13;;;;;;;15.80;7.03;;;;;;;;;;5026949;28;20056;-65
2021/08/22 04:36:39;;;;;;;17.17;6.97;;;;;;;;;;5026035;28;20073;-65
2021/08/22 04:39:06;;;;;;;14.68;6.88;;;;;;;;;;5025464;28;20125;-65
2021/08/22 04:41:32;;;;;;;14.52;7.07;;;;;;;;;;5028432;28;20476;-65
2021/08/22 04:43:59;;;;;;;35.55;7.80;;;;;;;;;;5024267;28;20511;-65
2021/08/22 04:46:26;;;;;;;22.52;7.25;;;;;;;;;;5020489;28;20097;-65
2021/08/22 04:48:53;;;;;;;24.95;7.22;;;;;;;;;;5021056;28;20440;-65
2021/08/22 04:51:19;;;;;;;13.57;7.33;;;;;;;;;;5029028;28;20060;-65
2021/08/22 04:53:46;;;;;;;12.80;7.32;;;;;;;;;;5024167;28;20091;-65
2021/08/22 04:56:13;;;;;;;24.50;8.10;;;;;;;;;;5016927;28;20081;-65
2021/08/22 04:58:40;;;;;;;12.40;6.40;;;;;;;;;;5013701;28;20130;-65
2021/08/22 05:01:07;;;;;;;10.77;6.60;;;;;;;;;;5023048;28;20057;-65
2021/08/22 05:03:34;;;;;;;11.75;6.68;;;;;;;;;;5023878;28;20053;-65
2021/08/22 05:06:01;;;;;;;15.82;7.65;;;;;;;;;;5020497;28;20083;-65
2021/08/22 05:08:27;;;;;;;10.05;6.78;;;;;;;;;;5024401;28;20490;-65
2021/08/22 05:10:55;;;;;;;10.40;6.75;;;;;;;;;;5022768;28;20107;-65
2021/08/22 05:13:22;;;;;;;9.48;6.90;;;;;;;;;;5023504;28;20042;-65
2021/08/22 05:15:50;;;;;;;11.43;6.22;;;;;;;;;;5023927;28;20084;-65
2021/08/22 05:18:18;;;;;;;10.68;6.43;;;;;;;;;;5024035;28;20041;-65
2021/08/22 05:20:44;;;;;;;9.32;6.10;;;;;;;;;;5026006;28;20064;-64
2021/08/22 05:23:11;;;;;;;10.10;6.70;;;;;;;;;;5023532;28;20088;-65
2021/08/22 05:25:37;;;;;;;10.30;6.82;;;;;;;;;;5024611;28;20073;-64
2021/08/22 05:28:04;;;;;;;11.77;6.75;;;;;;;;;;5022731;28;20417;-64
2021/08/22 05:30:30;;;;;;;9.60;6.53;;;;;;;;;;5021143;28;20481;-64
2021/08/22 05:32:58;;;;;;;10.38;6.88;;;;;;;;;;5024755;28;20129;-64
2021/08/22 05:35:24;;;;;;;10.38;7.13;;;;;;;;;;5023887;28;20735;-64
2021/08/22 05:37:51;;;;;;;11.85;7.50;;;;;;;;;;5023814;28;20150;-64
2021/08/22 05:40:17;;;;;;;15.68;8.07;;;;;;;;;;5024874;28;20143;-65
2021/08/22 05:42:44;;;;;;;15.20;8.38;;;;;;;;;;5019964;28;20073;-64
2021/08/22 05:45:10;;;;;;;22.02;8.00;;;;;;;;;;5019216;28;20573;-64
2021/08/22 05:47:37;;;;;;;8.82;6.72;;;;;;;;;;5024491;28;20045;-64
2021/08/22 05:50:04;;;;;;;8.95;6.40;;;;;;;;;;5023008;28;20045;-64
2021/08/22 05:52:34;;;;;;;8.63;6.20;;;;;;;;;;5020040;28;20073;-64
2021/08/22 05:55:05;;;;;;;8.95;6.10;;;;;;;;;;5017905;28;20486;-64
2021/08/22 05:57:31;;;;;;;11.90;7.35;;;;;;;;;;5024520;28;20532;-64
2021/08/22 05:59:58;;;;;;;8.30;6.30;;;;;;;;;;5027859;28;20461;-64
2021/08/22 06:02:25;;;;;;;8.63;6.90;;;;;;;;;;5020259;28;20489;-64
2021/08/22 06:04:52;;;;;;;10.82;7.00;;;;;;;;;;5017814;28;20421;-64
2021/08/22 06:07:21;;;;;;;11.50;6.95;;;;;;;;;;5018023;28;20065;-64
2021/08/22 06:09:48;;;;;;;9.60;7.05;;;;;;;;;;5021126;28;20128;-64
2021/08/22 06:12:15;;;;;;;13.05;7.28;;;;;;;;;;5023606;28;20553;-64
2021/08/22 06:14:41;;;;;;;9.18;6.57;;;;;;;;;;5021093;28;20046;-64
2021/08/22 06:17:08;;;;;;;11.18;7.65;;;;;;;;;;5023004;28;20168;-64
2021/08/22 06:19:34;;;;;;;9.73;7.50;;;;;;;;;;5025620;28;20422;-64
2021/08/22 06:22:01;;;;;;;12.18;7.30;;;;;;;;;;5024180;28;20453;-64
2021/08/22 06:24:28;;;;;;;8.48;6.93;;;;;;;;;;5022947;28;20132;-64
2021/08/22 06:26:54;;;;;;;9.45;7.00;;;;;;;;;;5021200;28;20056;-64
2021/08/22 06:29:21;;;;;;;8.13;6.75;;;;;;;;;;5023777;28;20083;-64
2021/08/22 06:31:48;;;;;;;10.93;6.88;;;;;;;;;;5018392;28;20132;-64
2021/08/22 06:34:15;;;;;;;12.93;7.40;;;;;;;;;;5020146;28;20176;-64
2021/08/22 06:36:42;;;;;;;13.32;8.20;;;;;;;;;;5021673;28;20141;-64
2021/08/22 06:39:09;;;;;;;12.10;7.97;;;;;;;;;;5020507;28;20092;-64
2021/08/22 06:41:36;;;;;;;14.27;7.30;;;;;;;;;;5022721;28;20604;-64
2021/08/22 06:44:02;;;;;;;10.10;7.05;;;;;;;;;;5024331;28;20128;-64
2021/08/22 06:46:29;;;;;;;12.15;7.30;;;;;;;;;;5018195;28;20077;-64
2021/08/22 06:48:56;;;;;;;12.15;6.63;;;;;;;;;;5017695;28;20144;-64
2021/08/22 06:51:23;;;;;;;16.42;6.72;;;;;;;;;;5028157;28;20152;-64
2021/08/22 06:53:50;;;;;;;10.68;6.25;;;;;;;;;;5017373;28;20100;-64
2021/08/22 06:56:16;;;;;;;8.02;5.32;;;;;;;;;;5017503;28;20053;-64
2021/08/22 06:58:43;;;;;;;11.40;6.13;;;;;;;;;;5022547;28;20079;-64
2021/08/22 07:01:11;;;;;;;10.60;5.00;;;;;;;;;;5018965;28;20216;-64
2021/08/22 07:03:38;;;;;;;7.65;5.45;;;;;;;;;;5017278;28;20073;-64
2021/08/22 07:06:05;;;;;;;11.77;5.60;;;;;;;;;;5022237;28;20046;-64
2021/08/22 07:08:32;;;;;;;11.48;5.30;;;;;;;;;;5026794;28;20132;-64
2021/08/22 07:10:58;;;;;;;10.60;4.95;;;;;;;;;;5027343;28;20128;-64
2021/08/22 07:13:25;;;;;;;10.52;5.25;;;;;;;;;;5026477;28;20145;-64
2021/08/22 07:15:51;;;;;;;16.10;5.90;;;;;;;;;;5027822;28;20045;-64
2021/08/22 07:18:20;;;;;;;12.13;5.10;;;;;;;;;;5025685;28;20041;-64
2021/08/22 07:20:46;;;;;;;8.65;4.60;;;;;;;;;;5024020;28;20080;-65
2021/08/22 07:23:13;;;;;;;11.73;4.95;;;;;;;;;;5020822;28;20104;-64
2021/08/22 07:25:40;;;;;;;6.90;4.07;;;;;;;;;;5026102;28;20486;-64
2021/08/22 07:28:07;;;;;;;6.82;3.92;;;;;;;;;;5024511;28;20050;-64
2021/08/22 07:30:33;;;;;;;12.52;4.32;;;;;;;;;;5025625;28;20140;-65
2021/08/22 07:33:02;;;;;;;8.38;4.50;;;;;;;;;;5024866;28;20072;-65
2021/08/22 07:35:29;;;;;;;12.38;4.38;;;;;;;;;;5030336;28;20096;-65
2021/08/22 07:37:56;;;;;;;7.53;3.88;;;;;;;;;;5018815;28;20080;-65
2021/08/22 07:40:23;;;;;;;8.65;3.85;;;;;;;;;;5023999;28;20129;-65
2021/08/22 07:42:49;;;;;;;12.35;4.35;;;;;;;;;;5024195;28;20458;-65
2021/08/22 07:45:16;;;;;;;8.07;4.05;;;;;;;;;;5022985;28;20054;-65
2021/08/22 07:47:45;;;;;;;13.88;4.32;;;;;;;;;;5022398;28;20056;-64
2021/08/22 07:50:11;;;;;;;6.18;3.45;;;;;;;;;;5022370;28;20077;-64
2021/08/22 07:52:38;;;;;;;7.95;3.67;;;;;;;;;;5022252;28;20081;-64
2021/08/22 07:55:05;;;;;;;14.35;3.60;;;;;;;;;;5024639;28;20038;-64
2021/08/22 07:57:31;;;;;;;14.20;3.47;;;;;;;;;;5026539;28;20053;-65
2021/08/22 07:59:58;;;;;;;10.38;3.55;;;;;;;;;;5022451;28;20125;-64
2021/08/22 08:02:24;;;;;;;14.73;3.30;;;;;;;;;;5024816;28;20053;-65
2021/08/22 08:04:51;;;;;;;8.73;3.10;;;;;;;;;;5025318;28;20489;-64
2021/08/22 08:07:18;;;;;;;8.77;3.23;;;;;;;;;;5021355;28;20050;-64
2021/08/22 08:09:45;;;;;;;9.35;3.17;;;;;;;;;;5025181;28;20341;-64
2021/08/22 08:12:11;;;;;;;8.95;3.25;;;;;;;;;;5020550;28;20080;-64
2021/08/22 08:14:37;;;;;;;7.13;2.78;;;;;;;;;;5025542;28;20085;-64
2021/08/22 08:17:04;;;;;;;8.82;2.97;;;;;;;;;;5023262;28;20445;-64
2021/08/22 08:19:30;;;;;;;7.70;2.97;;;;;;;;;;5025499;28;20076;-64
2021/08/22 08:21:57;;;;;;;6.95;2.95;;;;;;;;;;5020492;28;20129;-64
2021/08/22 08:24:24;;;;;;;5.85;2.85;;;;;;;;;;5021830;28;20122;-64
2021/08/22 08:26:50;;;;;;;12.43;3.25;;;;;;;;;;5023548;28;20056;-64
2021/08/22 08:29:17;;;;;;;8.18;3.13;;;;;;;;;;5026566;28;20173;-64
2021/08/22 08:31:44;;;;;;;6.78;2.70;;;;;;;;;;5025122;28;20085;-64
2021/08/22 08:34:10;;;;;;;7.03;2.70;;;;;;;;;;5020017;28;20098;-64
2021/08/22 08:36:37;;;;;;;8.20;3.00;;;;;;;;;;5020782;28;20084;-64
2021/08/22 08:39:03;;;;;;;7.70;3.00;;;;;;;;;;5025506;28;20084;-64
2021/08/22 08:41:30;;;;;;;7.78;2.78;;;;;;;;;;5019247;28;20085;-64
2021/08/22 08:43:56;;;;;;;9.17;3.00;;;;;;;;;;5024502;28;20563;-64
2021/08/22 08:46:25;;;;;;;7.67;3.17;;;;;;;;;;5024050;28;20050;-64
2021/08/22 08:48:55;;;;;;;10.45;3.17;;;;;;;;;;5020704;28;20488;-64
2021/08/22 08:51:24;;;;;;;8.45;3.08;;;;;;;;;;5022265;28;20136;-64
2021/08/22 08:53:52;;;;;;;8.25;2.95;;;;;;;;;;5025076;28;20791;-64
2021/08/22 08:56:19;;;;;;;;;;;;;;;;;;5021079;28;20577;-64
2021/08/22 08:58:45;;;;;;;6.20;2.72;;;;;;;;;;5023985;28;19972;-64
2021/08/22 09:01:12;;;;;;;4.13;2.53;;;;;;;;;;5026627;28;20084;-64
2021/08/22 09:03:42;;;;;;;8.85;2.65;;;;;;;;;;5020475;28;20058;-64
2021/08/22 09:06:19;;;;;;;8.43;2.85;;;;;;;;;;5019513;28;20050;-64
2021/08/22 09:08:54;;;;;;;8.45;2.85;;;;;;;;;;5017281;28;20321;-64
2021/08/22 09:11:40;;;;;;;6.10;2.40;;;;;;;;;;5018138;28;20132;-64
2021/08/22 09:14:25;;;;;;;9.27;2.85;;;;;;;;;;5022905;28;20089;-64
2021/08/22 09:17:10;;;;;;;4.70;2.63;;;;;;;;;;5028373;28;20050;-64
2021/08/22 09:19:56;;;;;;;6.32;2.55;;;;;;;;;;5023016;28;20095;-64
2021/08/22 09:22:41;;;;;;;6.32;2.53;;;;;;;;;;5025390;28;20450;-64
2021/08/22 09:25:27;;;;;;;4.43;2.55;;;;;;;;;;5017548;28;20092;-64
2021/08/22 09:28:12;;;;;;;7.35;3.00;;;;;;;;;;5018075;28;20568;-64
2021/08/22 09:30:58;;;;;;;6.18;2.92;;;;;;;;;;5011021;28;20110;-64
2021/08/22 09:33:43;;;;;;;5.75;2.70;;;;;;;;;;5026303;28;20077;-65
2021/08/22 09:36:25;;;;;;;6.07;2.75;;;;;;;;;;5023800;28;20133;-64
2021/08/22 09:38:52;;;;;;;6.07;2.40;;;;;;;;;;5017502;28;20046;-64
2021/08/22 09:41:24;;;;;;;5.38;2.55;;;;;;;;;;5013822;28;20552;-64
2021/08/22 09:44:29;;;;;;;7.80;2.45;;;;;;;;;;5018836;28;20443;-64
2021/08/22 09:47:14;;;;;;;5.35;3.00;;;;;;;;;;4924284;29;20059;-64
2021/08/22 09:50:01;;;;;;;5.38;2.50;;;;;;;;;;4925016;29;20578;-64
2021/08/22 09:52:47;;;;;;;5.78;2.50;;;;;;;;;;4983507;28;20042;-64
2021/08/22 09:55:32;;;;;;;6.63;2.63;;;;;;;;;;5003522;28;20054;-64
2021/08/22 09:58:05;;;;;;;5.32;2.38;;;;;;;;;;4987846;28;20538;-64
2021/08/22 10:00:41;;;;;;;7.40;2.60;;;;;;;;;;4993774;28;20088;-64
2021/08/22 10:03:08;;;;;;;5.60;2.30;;;;;;;;;;4998905;28;20077;-64
2021/08/22 10:05:50;;;;;;;5.83;2.20;;;;;;;;;;4999323;28;20497;-64
2021/08/22 10:08:20;;;;;;;7.45;2.30;;;;;;;;;;4993039;28;20046;-64
2021/08/22 10:10:50;;;;;;;10.75;2.63;;;;;;;;;;4994445;28;20150;-64
2021/08/22 10:13:17;;;;;;;5.13;2.40;;;;;;;;;;5006631;28;20049;-64
2021/08/22 10:15:44;;;;;;;8.35;2.63;;;;;;;;;;4996205;28;20160;-64
2021/08/22 10:18:11;;;;;;;4.70;2.65;;;;;;;;;;5001369;28;20092;-64
2021/08/22 10:20:42;;;;;;;5.05;2.65;;;;;;;;;;5001554;28;20077;-64
2021/08/22 10:23:27;;;;;;;6.57;2.38;;;;;;;;;;4999544;28;20125;-64
2021/08/22 10:25:55;;;;;;;5.70;2.40;;;;;;;;;;5004611;28;20137;-64
2021/08/22 10:28:49;;;;;;;6.22;2.55;;;;;;;;;;5003841;28;20124;-64
2021/08/22 10:31:35;;;;;;;5.43;2.25;;;;;;;;;;4976218;28;20064;-64
2021/08/22 10:34:12;;;;;;;3.95;2.20;;;;;;;;;;5001256;28;20470;-64
2021/08/22 10:36:39;;;;;;;6.70;2.70;;;;;;;;;;5000249;28;20147;-64
2021/08/22 10:39:25;;;;;;;5.07;2.28;;;;;;;;;;4999425;28;20053;-64
2021/08/22 10:41:58;;;;;;;3.92;2.03;;;;;;;;;;4998566;28;20053;-64
2021/08/22 10:44:34;;;;;;;5.82;2.35;;;;;;;;;;5001533;28;20384;-64
2021/08/22 10:47:11;;;;;;;6.60;2.63;;;;;;;;;;5010350;28;20590;-64
2021/08/22 10:49:49;;;;;;;6.60;2.45;;;;;;;;;;5016340;28;20048;-64
2021/08/22 10:52:29;;;;;;;4.40;2.25;;;;;;;;;;5016171;28;20149;-64
2021/08/22 10:55:14;;;;;;;6.50;2.30;;;;;;;;;;5018033;28;20138;-64
2021/08/22 10:57:49;;;;;;;5.85;2.55;;;;;;;;;;5017568;28;20501;-64
2021/08/22 11:00:36;;;;;;;5.32;2.47;;;;;;;;;;5020559;28;20136;-64
2021/08/22 11:03:21;;;;;;;3.67;2.22;;;;;;;;;;5019297;28;20052;-64
2021/08/22 11:05:48;;;;;;;5.32;2.65;;;;;;;;;;5016043;28;20133;-64
2021/08/22 11:08:20;;;;;;;6.85;2.55;;;;;;;;;;5014748;28;20050;-64
2021/08/22 11:10:58;;;;;;;3.03;2.25;;;;;;;;;;5014797;28;20506;-64
2021/08/22 11:13:26;;;;;;;3.92;2.47;;;;;;;;;;5018141;28;20097;-64
2021/08/22 11:15:52;;;;;;;4.07;2.40;;;;;;;;;;5019956;28;20128;-63
2021/08/22 11:18:19;;;;;;;6.83;2.73;;;;;;;;;;5015693;28;20104;-64
2021/08/22 11:20:46;;;;;;;5.22;2.70;;;;;;;;;;5021311;28;20466;-64
2021/08/22 11:23:17;;;;;;;4.27;2.10;;;;;;;;;;5019702;28;20045;-64
2021/08/22 11:25:45;;;;;;;6.28;2.63;;;;;;;;;;5014730;28;20608;-64
2021/08/22 11:28:13;;;;;;;4.68;2.50;;;;;;;;;;5018024;28;20049;-64
2021/08/22 11:30:39;;;;;;;;;;;;;;;;;;5015108;28;20081;-64
2021/08/22 11:33:06;;;;;;;6.55;2.47;;;;;;;;;;5013794;28;20289;-64
2021/08/22 11:35:51;;;;;;;6.13;2.38;;;;;;;;;;5016813;28;20672;-64
2021/08/22 11:38:18;;;;;;;4.72;2.38;;;;;;;;;;5016065;28;20154;-64
2021/08/22 11:40:45;;;;;;;4.78;2.17;;;;;;;;;;5019626;28;20058;-64
2021/08/22 11:43:12;;;;;;;4.93;2.30;;;;;;;;;;5017335;28;20112;-64
2021/08/22 11:45:41;;;;;;;6.05;2.15;;;;;;;;;;5020251;28;20089;-64
2021/08/22 11:48:14;;;;;;;5.40;2.28;;;;;;;;;;5022401;28;20049;-64
2021/08/22 11:50:40;;;;;;;5.03;1.95;;;;;;;;;;5014094;28;20080;-64
2021/08/22 11:53:08;;;;;;;5.43;2.40;;;;;;;;;;5019782;28;20073;-64
2021/08/22 11:55:37;;;;;;;5.03;2.08;;;;;;;;;;5024536;28;20734;-64
2021/08/22 11:58:09;;;;;;;6.53;2.63;;;;;;;;;;5021633;28;20471;-64
2021/08/22 12:00:37;;;;;;;4.45;2.25;;;;;;;;;;5023001;28;20073;-64
2021/08/22 12:03:03;;;;;;;6.43;2.17;;;;;;;;;;5024425;28;20050;-64
2021/08/22 12:05:31;;;;;;;5.13;2.15;;;;;;;;;;5020861;28;20045;-64
2021/08/22 12:07:57;;;;;;;;;;;;;;;;;;5021030;28;20132;-64
2021/08/22 12:10:25;;;;;;;7.22;2.60;;;;;;;;;;5024142;28;19961;-64
2021/08/22 12:12:51;;;;;;;;;;;;;;;;;;5026679;28;20501;-64
2021/08/22 12:15:26;;;;;;;6.65;2.42;;;;;;;;;;5024793;28;19921;-64
2021/08/22 12:18:11;;;;;;;4.63;2.22;;;;;;;;;;5023797;28;20188;-64
2021/08/22 12:20:38;;;;;;;7.07;2.17;;;;;;;;;;5018890;28;20140;-64
2021/08/22 12:23:08;;;;;;;3.75;2.10;;;;;;;;;;5019936;28;20062;-64
2021/08/22 12:25:35;;;;;;;5.03;2.20;;;;;;;;;;5017533;28;20049;-64
2021/08/22 12:28:37;;;;;;;5.85;2.50;;;;;;;;;;5025137;28;20488;-64
2021/08/22 12:31:06;;;;;;;5.28;2.20;;;;;;;;;;4973431;28;20137;-64
2021/08/22 12:33:34;;;;;;;4.35;2.40;;;;;;;;;;5012028;28;20196;-64
2021/08/22 12:36:01;;;;;;;5.57;2.20;;;;;;;;;;5022036;28;22337;-64
2021/08/22 12:38:38;;;;;;;3.13;2.10;;;;;;;;;;5018084;28;20481;-64
2021/08/22 12:41:23;;;;;;;2.40;1.73;;;;;;;;;;5020218;28;20061;-64
2021/08/22 12:43:50;;;;;;;5.63;2.33;;;;;;;;;;5024621;28;20080;-64
2021/08/22 12:46:17;;;;;;;4.72;2.20;;;;;;;;;;5018892;28;20123;-64
2021/08/22 12:48:44;;;;;;;3.80;2.05;;;;;;;;;;5027125;28;20056;-64
2021/08/22 12:51:11;;;;;;;3.25;2.08;;;;;;;;;;5018424;28;20513;-64
2021/08/22 12:53:38;;;;;;;6.28;2.17;;;;;;;;;;5026062;28;20055;-64
2021/08/22 12:56:05;;;;;;;3.47;2.20;;;;;;;;;;5024157;28;20567;-64
2021/08/22 12:58:31;;;;;;;7.60;2.25;;;;;;;;;;5025141;28;20331;-64
2021/08/22 13:01:00;;;;;;;3.70;1.90;;;;;;;;;;5017993;28;20461;-62
2021/08/22 13:03:27;;;;;;;3.72;1.75;;;;;;;;;;5024139;28;20049;-62
2021/08/22 13:05:54;;;;;;;4.13;2.17;;;;;;;;;;5025995;28;20092;-62
2021/08/22 13:08:20;;;;;;;2.78;1.77;;;;;;;;;;5018657;28;20081;-62
2021/08/22 13:10:47;;;;;;;4.35;2.20;;;;;;;;;;5023090;28;20125;-62
2021/08/22 13:13:13;;;;;;;4.85;2.00;;;;;;;;;;5021733;28;20135;-62
2021/08/22 13:15:40;;;;;;;6.95;2.50;;;;;;;;;;5023365;28;20118;-62
2021/08/22 13:18:07;;;;;;;4.00;2.00;;;;;;;;;;5026986;28;20049;-62
2021/08/22 13:20:33;;;;;;;2.83;2.00;;;;;;;;;;5023542;28;20084;-62
2021/08/22 13:23:00;;;;;;;3.15;2.15;;;;;;;;;;5024405;28;20398;-62
2021/08/22 13:25:28;;;;;;;4.63;2.38;;;;;;;;;;5023959;28;20056;-62
2021/08/22 13:27:55;;;;;;;4.93;2.25;;;;;;;;;;5025416;28;20176;-62
2021/08/22 13:30:22;;;;;;;3.85;1.80;;;;;;;;;;5023986;28;20052;-62
2021/08/22 13:32:48;;;;;;;4.28;2.22;;;;;;;;;;5024025;28;20132;-62
2021/08/22 13:35:28;;;;;;;5.55;2.10;;;;;;;;;;5023810;28;20045;-62
2021/08/22 13:37:55;;;;;;;4.15;2.15;;;;;;;;;;5019738;28;20370;-62
2021/08/22 13:40:21;;;;;;;6.93;2.50;;;;;;;;;;5017798;28;20545;-62
2021/08/22 13:42:48;;;;;;;3.58;2.00;;;;;;;;;;5022257;28;20128;-61
2021/08/22 13:45:15;;;;;;;5.03;2.13;;;;;;;;;;5017951;28;20072;-62
2021/08/22 13:47:42;;;;;;;6.05;2.10;;;;;;;;;;5018125;28;20339;-62
2021/08/22 13:50:08;;;;;;;4.90;2.20;;;;;;;;;;5025703;28;20156;-62
2021/08/22 13:52:35;;;;;;;3.53;2.00;;;;;;;;;;5021202;28;20136;-62
2021/08/22 13:55:02;;;;;;;6.07;1.98;;;;;;;;;;5015787;28;20048;-62
2021/08/22 13:57:28;;;;;;;4.80;2.23;;;;;;;;;;5020757;28;20140;-62
2021/08/22 13:59:55;;;;;;;4.05;2.38;;;;;;;;;;5018657;28;20375;-62
2021/08/22 14:02:21;;;;;;;6.18;2.30;;;;;;;;;;5019339;28;20045;-62
2021/08/22 14:04:48;;;;;;;7.25;2.25;;;;;;;;;;5019547;28;20045;-62
2021/08/22 14:07:15;;;;;;;3.40;2.08;;;;;;;;;;5020224;28;20480;-62
2021/08/22 14:09:41;;;;;;;3.97;1.88;;;;;;;;;;5022876;28;20132;-62
2021/08/22 14:12:08;;;;;;;5.03;2.30;;;;;;;;;;5019062;28;20140;-62
2021/08/22 14:14:35;;;;;;;4.32;2.25;;;;;;;;;;5022199;28;20069;-62
2021/08/22 14:17:01;;;;;;;5.03;1.90;;;;;;;;;;5020502;28;20136;-62
2021/08/22 14:19:28;;;;;;;4.88;1.98;;;;;;;;;;5020822;28;20569;-62
2021/08/22 14:21:55;;;;;;;5.45;1.92;;;;;;;;;;5017733;28;20080;-62
2021/08/22 14:24:21;;;;;;;2.78;2.10;;;;;;;;;;5020437;28;20160;-62
2021/08/22 14:26:48;;;;;;;3.47;1.92;;;;;;;;;;5018694;28;20795;-62
2021/08/22 14:29:14;;;;;;;2.60;1.90;;;;;;;;;;5017278;28;20149;-62
2021/08/22 14:31:41;;;;;;;8.93;2.08;;;;;;;;;;5019622;28;20112;-63
2021/08/22 14:34:07;;;;;;;3.23;1.87;;;;;;;;;;5017802;28;20144;-63
2021/08/22 14:36:36;;;;;;;6.20;2.15;;;;;;;;;;5019588;28;20133;-62
2021/08/22 14:39:05;;;;;;;7.45;2.00;;;;;;;;;;5020316;28;20084;-62
2021/08/22 14:41:32;;;;;;;4.10;2.28;;;;;;;;;;5014990;28;20140;-62
2021/08/22 14:43:59;;;;;;;5.38;2.20;;;;;;;;;;5018255;28;20541;-62
2021/08/22 14:46:26;;;;;;;4.55;1.77;;;;;;;;;;5022601;28;20089;-62
2021/08/22 14:48:55;;;;;;;6.53;2.08;;;;;;;;;;5018833;28;20042;-62